Mongmong, Guam
Current Conditions -  °F | °C
As of 6:54 PM on Monday 20 Oct 2014 (Local Time) from PGUM Reporting Station
Clear Clear  
Wind Chill: 82°   Ceiling: Unl
Heat Index: 88°   Visibility: 10mi
Dew Point: 74°   Wind: 7mph
Humidity: 76%   Direction: 40°NE
Pressure: 29.83"   Gusts: NA
Location:  13.47°N, 144.76°E
Report Text: PGUM 200854Z 04006KT 10SM CLR 28/23 A2983 RMK AO2 SLP095 60001 T02780233 53010
Loading
Personal Weather Stations






























Interactive Weather Map
Tropical Storm Tracking
New forecast layout! Learn more

10-Day Weather Forecast

Advertisements
Track Severe Weather on mobile